createdAt,value
2018-10-21T00:00:18.052Z,101843.43
2018-10-21T00:02:45.728Z,101843.80
2018-10-21T00:05:14.608Z,101843.42
2018-10-21T00:07:42.370Z,101844.41
2018-10-21T00:10:10.801Z,101840.05
2018-10-21T00:12:42.723Z,101843.80
2018-10-21T00:15:10.854Z,101849.05
2018-10-21T00:17:38.512Z,101845.67
2018-10-21T00:20:08.045Z,101838.41
2018-10-21T00:22:39.657Z,101848.06
2018-10-21T00:25:07.473Z,101850.30
2018-10-21T00:27:35.167Z,101844.39
2018-10-21T00:30:02.944Z,101837.27
2018-10-21T00:32:36.296Z,101843.55
2018-10-21T00:35:05.009Z,101842.19
2018-10-21T00:37:32.733Z,101837.09
2018-10-21T00:40:00.438Z,101836.75
2018-10-21T00:42:28.165Z,101839.80
2018-10-21T00:44:55.821Z,101836.06
2018-10-21T00:47:23.566Z,101835.22
2018-10-21T00:49:51.232Z,101830.81
2018-10-21T00:52:18.934Z,101826.05
2018-10-21T00:54:46.622Z,101824.02
2018-10-21T00:57:14.372Z,101825.23
2018-10-21T00:59:42.081Z,101822.70
2018-10-21T01:02:09.772Z,101819.98
2018-10-21T01:04:37.401Z,101824.23
2018-10-21T01:07:05.636Z,101813.19
2018-10-21T01:09:33.352Z,101819.47
2018-10-21T01:12:01.084Z,101815.28
2018-10-21T01:14:28.845Z,101804.90
2018-10-21T01:16:56.600Z,101799.50
2018-10-21T01:19:24.251Z,101805.11
2018-10-21T01:21:52.009Z,101806.98
2018-10-21T01:24:19.792Z,101803.11
2018-10-21T01:26:47.411Z,101816.84
2018-10-21T01:29:15.138Z,101816.99
2018-10-21T01:31:42.825Z,101811.75
2018-10-21T01:34:10.551Z,101815.13
2018-10-21T01:36:38.389Z,101808.86
2018-10-21T01:39:08.301Z,101807.17
2018-10-21T01:41:36.017Z,101805.30
2018-10-21T01:44:03.857Z,101803.61
2018-10-21T01:46:31.561Z,101807.86
2018-10-21T01:48:59.250Z,101803.28
2018-10-21T01:51:26.944Z,101804.12
2018-10-21T01:53:54.642Z,101800.38
2018-10-21T01:56:22.293Z,101803.27
2018-10-21T01:58:50.004Z,101807.00
2018-10-21T02:01:17.721Z,101810.74
2018-10-21T02:03:45.405Z,101825.50
2018-10-21T02:06:13.045Z,101816.67
2018-10-21T02:08:40.681Z,101820.09
2018-10-21T02:11:08.377Z,101817.37
2018-10-21T02:13:36.065Z,101817.03
2018-10-21T02:16:03.855Z,101821.78
2018-10-21T02:18:31.553Z,101817.70
2018-10-21T02:20:59.274Z,101818.73
2018-10-21T02:23:26.911Z,101827.20
2018-10-21T02:25:54.583Z,101832.30
2018-10-21T02:28:22.313Z,101827.55
2018-10-21T02:30:50.062Z,101827.36
2018-10-21T02:33:17.886Z,101827.38
2018-10-21T02:35:45.517Z,101832.95
2018-10-21T02:38:13.176Z,101832.97
2018-10-21T02:41:54.001Z,101831.77
2018-10-21T02:44:22.296Z,101827.36
2018-10-21T02:46:51.318Z,101824.98
2018-10-21T02:49:19.707Z,101815.66
2018-10-21T02:51:53.208Z,101817.88
2018-10-21T02:54:22.589Z,101817.21
2018-10-21T02:56:50.676Z,101826.00
2018-10-21T02:59:18.786Z,101833.81
2018-10-21T03:01:46.451Z,101827.84
2018-10-21T03:04:15.057Z,101835.99
2018-10-21T03:06:42.804Z,101825.48
2018-10-21T03:09:10.559Z,101836.34
2018-10-21T03:11:38.185Z,101829.22
2018-10-21T03:14:05.910Z,101827.02
2018-10-21T03:16:33.629Z,101837.50
2018-10-21T03:19:01.309Z,101831.23
2018-10-21T03:21:28.996Z,101836.30
2018-10-21T03:23:56.729Z,101825.98
2018-10-21T03:26:24.531Z,101826.64
2018-10-21T03:28:52.208Z,101829.39
2018-10-21T03:31:19.925Z,101833.94
2018-10-21T03:33:47.739Z,101835.81
2018-10-21T03:36:15.361Z,101834.28
2018-10-21T03:38:43.104Z,101830.37
2018-10-21T03:41:10.746Z,101827.66
2018-10-21T03:43:38.397Z,101829.52
2018-10-21T03:46:07.076Z,101833.94
2018-10-21T03:48:34.724Z,101826.97
2018-10-21T03:51:02.409Z,101837.64
2018-10-21T03:53:30.109Z,101829.52
2018-10-21T03:55:57.853Z,101834.74
2018-10-21T03:58:25.521Z,101828.50
2018-10-21T04:00:53.263Z,101837.13
2018-10-21T04:03:20.977Z,101838.64
2018-10-21T04:05:48.727Z,101831.02
2018-10-21T04:08:16.449Z,101824.56
2018-10-21T04:10:44.149Z,101824.91
2018-10-21T04:13:11.884Z,101823.68
2018-10-21T04:15:39.603Z,101823.69
2018-10-21T04:18:07.290Z,101828.90
2018-10-21T04:20:35.025Z,101828.39
2018-10-21T04:23:03.321Z,101829.24
2018-10-21T04:25:32.117Z,101827.18
2018-10-21T04:28:00.711Z,101818.21
2018-10-21T04:30:29.728Z,101822.98
2018-10-21T04:34:03.815Z,101827.58
2018-10-21T04:36:32.793Z,101821.65
2018-10-21T04:40:15.999Z,101815.75
2018-10-21T04:42:44.181Z,101809.94
2018-10-21T04:45:13.097Z,101806.56
2018-10-21T04:47:40.821Z,101801.46
2018-10-21T04:50:09.612Z,101792.47
2018-10-21T04:52:37.289Z,101780.62
2018-10-21T04:55:10.536Z,101783.98
2018-10-21T04:57:39.341Z,101779.97
2018-10-21T05:00:14.493Z,101771.31
2018-10-21T05:02:42.253Z,101769.27
2018-10-21T05:05:11.043Z,101777.75
2018-10-21T05:07:39.210Z,101774.22
2018-10-21T05:10:23.797Z,101783.64
2018-10-21T05:12:51.545Z,101774.37
2018-10-21T05:15:19.874Z,101782.80
2018-10-21T05:17:47.504Z,101787.85
2018-10-21T05:20:15.162Z,101781.90
2018-10-21T05:22:42.944Z,101786.30
2018-10-21T05:25:11.140Z,101785.96
2018-10-21T05:27:39.114Z,101778.23
2018-10-21T05:30:08.241Z,101786.47
2018-10-21T05:32:35.937Z,101780.55
2018-10-21T05:35:05.102Z,101776.83
2018-10-21T05:37:32.729Z,101775.98
2018-10-21T05:40:00.415Z,101776.83
2018-10-21T05:42:28.175Z,101777.84
2018-10-21T05:44:55.908Z,101781.76
2018-10-21T05:47:23.693Z,101799.72
2018-10-21T05:49:51.390Z,101793.96
2018-10-21T05:52:19.081Z,101798.20
2018-10-21T05:54:50.953Z,101804.97
2018-10-21T05:57:18.751Z,101809.16
2018-10-21T05:59:46.457Z,101806.26
2018-10-21T06:02:14.137Z,101816.44
2018-10-21T06:04:41.856Z,101813.08
2018-10-21T06:07:09.549Z,101812.07
2018-10-21T06:09:37.389Z,101814.58
2018-10-21T06:12:05.490Z,101822.56
2018-10-21T06:14:33.189Z,101816.91
2018-10-21T06:17:05.244Z,101826.15
2018-10-21T06:19:51.397Z,101826.66
2018-10-21T06:22:19.646Z,101833.45
2018-10-21T06:24:47.452Z,101844.45
2018-10-21T06:27:15.089Z,101843.95
2018-10-21T06:29:42.881Z,101856.63
2018-10-21T06:32:10.580Z,101859.33
2018-10-21T06:34:38.322Z,101863.05
2018-10-21T06:37:06.073Z,101859.50
2018-10-21T06:39:33.814Z,101867.83
2018-10-21T06:42:01.528Z,101868.00
2018-10-21T06:44:29.212Z,101867.16
2018-10-21T06:46:56.972Z,101872.73
2018-10-21T06:49:24.766Z,101876.53
2018-10-21T06:51:52.457Z,101879.75
2018-10-21T06:54:25.520Z,101887.73
2018-10-21T06:56:53.298Z,101883.67
2018-10-21T06:59:22.170Z,101884.15
2018-10-21T07:01:49.829Z,101891.63
2018-10-21T07:04:17.587Z,101884.35
2018-10-21T07:06:45.241Z,101887.77
2018-10-21T07:09:13.024Z,101893.39
2018-10-21T07:11:40.776Z,101889.39
2018-10-21T07:14:08.433Z,101885.69
2018-10-21T07:16:36.323Z,101888.42
2018-10-21T07:19:04.113Z,101882.83
2018-10-21T07:21:31.852Z,101883.05
2018-10-21T07:23:59.605Z,101881.55
2018-10-21T07:26:27.319Z,101884.63
2018-10-21T07:28:54.996Z,101885.63
2018-10-21T07:31:22.745Z,101883.80
2018-10-21T07:33:50.511Z,101887.86
2018-10-21T07:36:18.341Z,101878.89
2018-10-21T07:38:46.024Z,101875.00
2018-10-21T07:41:13.764Z,101875.86
2018-10-21T07:43:41.465Z,101876.19
2018-10-21T07:46:09.176Z,101885.51
2018-10-21T07:48:36.887Z,101889.58
2018-10-21T07:51:05.208Z,101887.05
2018-10-21T07:53:32.916Z,101888.73
2018-10-21T07:56:00.665Z,101889.59
2018-10-21T07:58:28.424Z,101892.30
2018-10-21T08:00:56.163Z,101894.67
2018-10-21T08:03:23.904Z,101891.28
2018-10-21T08:06:29.433Z,101894.50
2018-10-21T08:08:57.357Z,101900.78
2018-10-21T08:11:25.074Z,101894.80
2018-10-21T08:13:53.000Z,101890.06
2018-10-21T08:16:20.972Z,101895.81
2018-10-21T08:18:49.305Z,101887.66
2018-10-21T08:21:18.862Z,101891.89
2018-10-21T08:23:46.541Z,101889.80
2018-10-21T08:26:14.253Z,101887.08
2018-10-21T08:28:41.986Z,101884.66
2018-10-21T08:31:09.664Z,101889.57
2018-10-21T08:33:37.360Z,101895.91
2018-10-21T08:36:05.919Z,101889.95
2018-10-21T08:38:33.849Z,101894.23
2018-10-21T08:41:01.562Z,101888.16
2018-10-21T08:43:29.285Z,101882.50
2018-10-21T08:45:57.016Z,101876.73
2018-10-21T08:48:24.688Z,101879.76
2018-10-21T08:50:52.364Z,101878.33
2018-10-21T08:53:20.489Z,101869.72
2018-10-21T08:55:48.274Z,101864.52
2018-10-21T08:58:16.057Z,101868.41
2018-10-21T09:00:43.749Z,101860.84
2018-10-21T09:03:11.470Z,101864.47
2018-10-21T09:05:39.166Z,101867.78
2018-10-21T09:08:12.253Z,101860.83
2018-10-21T09:10:47.649Z,101854.83
2018-10-21T09:13:25.667Z,101863.59
2018-10-21T09:15:53.640Z,101859.48
2018-10-21T09:18:21.277Z,101853.70
2018-10-21T09:20:56.964Z,101851.05
2018-10-21T09:23:35.071Z,101851.77
2018-10-21T09:26:03.172Z,101853.52
2018-10-21T09:28:36.234Z,101855.59
2018-10-21T09:31:12.330Z,101860.84
2018-10-21T09:33:40.021Z,101865.73
2018-10-21T09:36:18.574Z,101857.80
2018-10-21T09:38:57.017Z,101863.23
2018-10-21T09:41:33.131Z,101855.05
2018-10-21T09:44:01.057Z,101854.20
2018-10-21T09:46:28.765Z,101848.53
2018-10-21T09:48:56.517Z,101840.85
2018-10-21T09:51:24.181Z,101847.11
2018-10-21T09:53:51.793Z,101841.62
2018-10-21T09:56:19.628Z,101839.50
2018-10-21T09:58:47.388Z,101839.35
2018-10-21T10:02:24.482Z,101835.04
2018-10-21T10:04:52.137Z,101827.23
2018-10-21T10:07:19.948Z,101822.02
2018-10-21T10:09:47.542Z,101826.78
2018-10-21T10:12:15.326Z,101820.69
2018-10-21T10:14:43.033Z,101817.30
2018-10-21T10:17:10.777Z,101821.07
2018-10-21T10:19:38.408Z,101813.56
2018-10-21T10:22:06.199Z,101800.56
2018-10-21T10:24:34.883Z,101806.03
2018-10-21T10:27:02.605Z,101795.63
2018-10-21T10:29:30.293Z,101794.84
2018-10-21T10:31:57.983Z,101790.75
2018-10-21T10:34:25.735Z,101788.78
2018-10-21T10:36:53.357Z,101786.59
2018-10-21T10:39:21.046Z,101779.48
2018-10-21T10:41:48.780Z,101776.94
2018-10-21T10:44:16.435Z,101774.29
2018-10-21T10:46:44.086Z,101763.54
2018-10-21T10:49:11.771Z,101756.21
2018-10-21T10:51:39.761Z,101747.59
2018-10-21T10:54:07.489Z,101744.20
2018-10-21T10:56:38.615Z,101740.40
2018-10-21T10:59:06.277Z,101741.05
2018-10-21T11:01:34.049Z,101733.80
2018-10-21T11:04:01.769Z,101731.06
2018-10-21T11:06:29.467Z,101725.45
2018-10-21T11:08:57.180Z,101720.69
2018-10-21T11:11:24.912Z,101724.17
2018-10-21T11:13:52.574Z,101721.65
2018-10-21T11:16:20.525Z,101714.94
2018-10-21T11:18:48.173Z,101715.34
2018-10-21T11:21:15.856Z,101713.83
2018-10-21T11:23:44.428Z,101704.77
2018-10-21T11:26:12.226Z,101704.03
2018-10-21T11:28:39.932Z,101700.52
2018-10-21T11:31:07.651Z,101700.00
2018-10-21T11:33:35.305Z,101698.27
2018-10-21T11:36:03.021Z,101692.31
2018-10-21T11:38:34.699Z,101690.44
2018-10-21T11:41:02.505Z,101681.17
2018-10-21T11:43:30.228Z,101688.48
2018-10-21T11:45:57.997Z,101684.50
2018-10-21T11:48:25.665Z,101680.02
2018-10-21T11:50:53.335Z,101680.92
2018-10-21T11:53:21.149Z,101674.89
2018-10-21T11:55:53.664Z,101684.28
2018-10-21T11:58:21.652Z,101674.92
2018-10-21T12:00:54.119Z,101668.47
2018-10-21T12:03:22.677Z,101669.59
2018-10-21T12:05:50.396Z,101664.27
2018-10-21T12:08:18.156Z,101665.61
2018-10-21T12:10:45.873Z,101660.25
2018-10-21T12:13:13.624Z,101655.75
2018-10-21T12:15:41.224Z,101656.34
2018-10-21T12:18:08.967Z,101648.90
2018-10-21T12:20:37.382Z,101645.11
2018-10-21T12:23:05.433Z,101646.27
2018-10-21T12:25:33.039Z,101641.89
2018-10-21T12:28:00.731Z,101642.23
2018-10-21T12:30:28.478Z,101642.98
2018-10-21T12:32:56.150Z,101643.34
2018-10-21T12:35:23.826Z,101638.80
2018-10-21T12:37:51.538Z,101636.89
2018-10-21T12:40:19.494Z,101630.34
2018-10-21T12:42:57.116Z,101630.17
2018-10-21T12:45:26.404Z,101624.47
2018-10-21T12:47:57.060Z,101624.01
2018-10-21T12:50:24.770Z,101625.21
2018-10-21T12:52:52.492Z,101631.34
2018-10-21T12:55:20.318Z,101624.64
2018-10-21T12:57:47.951Z,101627.05
2018-10-21T13:00:15.732Z,101626.34
2018-10-21T13:02:43.416Z,101622.44
2018-10-21T13:05:11.145Z,101625.36
2018-10-21T13:07:38.793Z,101624.43
2018-10-21T13:10:06.892Z,101617.52
2018-10-21T13:12:34.505Z,101612.55
2018-10-21T13:15:02.250Z,101605.73
2018-10-21T13:17:29.934Z,101615.02
2018-10-21T13:19:57.549Z,101614.09
2018-10-21T13:22:25.225Z,101611.52
2018-10-21T13:24:56.715Z,101608.53
2018-10-21T13:27:24.441Z,101609.23
2018-10-21T13:29:52.149Z,101607.89
2018-10-21T13:32:19.821Z,101596.88
2018-10-21T13:34:47.530Z,101597.13
2018-10-21T13:37:15.232Z,101596.01
2018-10-21T13:39:43.002Z,101595.08
2018-10-21T13:42:10.756Z,101585.99
2018-10-21T13:44:38.380Z,101589.94
2018-10-21T13:47:06.068Z,101587.14
2018-10-21T13:49:33.797Z,101583.45
2018-10-21T13:52:01.664Z,101585.13
2018-10-21T13:54:29.168Z,101573.63
2018-10-21T13:56:56.936Z,101568.36
2018-10-21T13:59:24.733Z,101564.83
2018-10-21T14:01:52.384Z,101559.56
2018-10-21T14:04:20.215Z,101561.63
2018-10-21T14:06:47.953Z,101552.25
2018-10-21T14:09:15.604Z,101547.02
2018-10-21T14:11:43.334Z,101551.70
2018-10-21T14:14:11.404Z,101548.97
2018-10-21T14:16:39.325Z,101549.42
2018-10-21T14:19:07.560Z,101546.47
2018-10-21T14:21:35.249Z,101543.84
2018-10-21T14:24:03.099Z,101547.66
2018-10-21T14:26:30.837Z,101539.38
2018-10-21T14:28:58.511Z,101540.56
2018-10-21T14:31:26.201Z,101541.08
2018-10-21T14:33:53.950Z,101530.06
2018-10-21T14:36:21.686Z,101534.17
2018-10-21T14:38:49.400Z,101530.23
2018-10-21T14:41:17.117Z,101532.44
2018-10-21T14:43:45.426Z,101531.31
2018-10-21T14:46:13.190Z,101523.88
2018-10-21T14:48:40.797Z,101524.73
2018-10-21T14:51:08.490Z,101523.36
2018-10-21T14:53:36.121Z,101517.16
2018-10-21T14:56:04.115Z,101519.25
2018-10-21T14:58:31.812Z,101520.34
2018-10-21T15:00:59.496Z,101518.13
2018-10-21T15:03:28.395Z,101519.80
2018-10-21T15:05:56.141Z,101518.99
2018-10-21T15:08:24.196Z,101516.20
2018-10-21T15:10:51.905Z,101515.56
2018-10-21T15:13:19.600Z,101508.91
2018-10-21T15:15:49.006Z,101505.28
2018-10-21T15:18:16.762Z,101511.55
2018-10-21T15:20:44.362Z,101510.74
2018-10-21T15:23:12.075Z,101510.45
2018-10-21T15:25:39.688Z,101511.22
2018-10-21T15:28:07.420Z,101503.00
2018-10-21T15:30:37.493Z,101504.49
2018-10-21T15:33:05.199Z,101503.56
2018-10-21T15:35:32.978Z,101501.78
2018-10-21T15:38:00.816Z,101494.84
2018-10-21T15:40:30.557Z,101495.94
2018-10-21T15:42:58.237Z,101494.92
2018-10-21T15:45:25.988Z,101500.98
2018-10-21T15:47:53.648Z,101501.63
2018-10-21T15:50:21.479Z,101503.30
2018-10-21T15:52:53.981Z,101498.22
2018-10-21T15:55:21.769Z,101505.80
2018-10-21T15:57:49.484Z,101501.26
2018-10-21T16:00:17.189Z,101493.27
2018-10-21T16:02:44.946Z,101502.45
2018-10-21T16:05:12.655Z,101490.23
2018-10-21T16:07:40.436Z,101491.52
2018-10-21T16:10:09.101Z,101493.25
2018-10-21T16:12:37.052Z,101495.13
2018-10-21T16:15:08.481Z,101496.41
2018-10-21T16:17:36.229Z,101503.55
2018-10-21T16:20:05.418Z,101502.10
2018-10-21T16:22:33.849Z,101500.35
2018-10-21T16:25:01.563Z,101507.29
2018-10-21T16:27:29.205Z,101507.80
2018-10-21T16:29:56.914Z,101499.97
2018-10-21T16:32:24.740Z,101507.66
2018-10-21T16:34:56.169Z,101506.14
2018-10-21T16:37:24.787Z,101512.91
2018-10-21T16:39:52.397Z,101506.69
2018-10-21T16:42:20.129Z,101504.56
2018-10-21T16:44:47.881Z,101504.89
2018-10-21T16:47:15.629Z,101511.55
2018-10-21T16:49:43.388Z,101507.05
2018-10-21T16:52:11.100Z,101512.69
2018-10-21T16:54:38.881Z,101515.52
2018-10-21T16:57:06.608Z,101517.70
2018-10-21T16:59:34.269Z,101509.64
2018-10-21T17:02:02.229Z,101518.04
2018-10-21T17:04:29.925Z,101515.80
2018-10-21T17:06:57.704Z,101519.28
2018-10-21T17:09:25.522Z,101519.50
2018-10-21T17:11:53.100Z,101510.97
2018-10-21T17:14:20.817Z,101514.31
2018-10-21T17:16:48.588Z,101516.98
2018-10-21T17:19:18.509Z,101517.70
2018-10-21T17:21:46.209Z,101518.28
2018-10-21T17:24:14.591Z,101527.69
2018-10-21T17:26:42.353Z,101519.81
2018-10-21T17:29:10.520Z,101517.81
2018-10-21T17:31:38.516Z,101518.27
2018-10-21T17:34:06.298Z,101521.88
2018-10-21T17:36:33.973Z,101524.66
2018-10-21T17:39:01.624Z,101520.52
2018-10-21T17:41:30.077Z,101522.38
2018-10-21T17:43:58.132Z,101521.64
2018-10-21T17:46:31.278Z,101516.59
2018-10-21T17:48:58.870Z,101515.44
2018-10-21T17:51:26.630Z,101518.44
2018-10-21T17:53:56.036Z,101521.20
2018-10-21T17:56:26.258Z,101526.27
2018-10-21T17:58:54.077Z,101520.42
2018-10-21T18:01:26.711Z,101518.45
2018-10-21T18:03:59.273Z,101521.24
2018-10-21T18:06:33.403Z,101519.89
2018-10-21T18:09:01.569Z,101526.55
2018-10-21T18:11:39.901Z,101525.08
2018-10-21T18:14:13.420Z,101526.36
2018-10-21T18:16:41.444Z,101530.68
2018-10-21T18:19:09.330Z,101524.91
2018-10-21T18:21:37.149Z,101527.39
2018-10-21T18:24:06.065Z,101527.73
2018-10-21T18:26:38.495Z,101527.39
2018-10-21T18:29:07.103Z,101528.23
2018-10-21T18:31:34.808Z,101529.06
2018-10-21T18:34:05.019Z,101530.12
2018-10-21T18:36:40.824Z,101527.08
2018-10-21T18:39:13.193Z,101526.86
2018-10-21T18:41:41.340Z,101525.58
2018-10-21T18:44:09.970Z,101524.33
2018-10-21T18:46:37.637Z,101522.20
2018-10-21T18:49:05.497Z,101530.08
2018-10-21T18:51:33.197Z,101526.81
2018-10-21T18:54:00.949Z,101524.17
2018-10-21T18:56:28.676Z,101524.62
2018-10-21T18:58:56.274Z,101521.55
2018-10-21T19:01:24.169Z,101521.43
2018-10-21T19:03:51.882Z,101525.16
2018-10-21T19:06:19.915Z,101526.33
2018-10-21T19:08:47.716Z,101524.30
2018-10-21T19:11:15.519Z,101526.11
2018-10-21T19:13:43.207Z,101522.95
2018-10-21T19:16:10.990Z,101530.83
2018-10-21T19:18:38.616Z,101522.20
2018-10-21T19:21:06.349Z,101531.63
2018-10-21T19:23:34.085Z,101533.66
2018-10-21T19:26:01.809Z,101533.42
2018-10-21T19:28:29.565Z,101533.28
2018-10-21T19:30:57.255Z,101541.05
2018-10-21T19:33:24.912Z,101545.98
2018-10-21T19:35:52.689Z,101540.58
2018-10-21T19:38:20.405Z,101551.25
2018-10-21T19:40:48.058Z,101549.80
2018-10-21T19:43:15.916Z,101546.84
2018-10-21T19:45:43.493Z,101546.66
2018-10-21T19:48:11.272Z,101547.08
2018-10-21T19:50:40.352Z,101547.14
2018-10-21T19:53:08.202Z,101546.81
2018-10-21T19:55:35.952Z,101552.52
2018-10-21T19:58:03.828Z,101548.92
2018-10-21T20:00:31.537Z,101547.00
2018-10-21T20:02:59.272Z,101545.92
2018-10-21T20:05:27.013Z,101543.16
2018-10-21T20:07:55.577Z,101539.85
2018-10-21T20:10:23.305Z,101550.64
2018-10-21T20:12:50.986Z,101547.77
2018-10-21T20:15:18.683Z,101547.91
2018-10-21T20:17:46.456Z,101546.36
2018-10-21T20:20:14.101Z,101547.72
2018-10-21T20:22:41.822Z,101551.38
2018-10-21T20:25:10.328Z,101544.48
2018-10-21T20:27:38.333Z,101544.16
2018-10-21T20:30:08.129Z,101543.91
2018-10-21T20:32:36.111Z,101546.77
2018-10-21T20:35:05.966Z,101547.38
2018-10-21T20:37:33.686Z,101546.27
2018-10-21T20:40:01.976Z,101546.59
2018-10-21T20:42:31.007Z,101543.92
2018-10-21T20:44:58.748Z,101546.65
2018-10-21T20:47:26.440Z,101539.59
2018-10-21T20:49:54.139Z,101546.40
2018-10-21T20:52:21.900Z,101548.41
2018-10-21T20:54:50.184Z,101555.61
2018-10-21T20:57:17.884Z,101554.09
2018-10-21T20:59:47.079Z,101559.75
2018-10-21T21:02:16.384Z,101559.31
2018-10-21T21:04:45.087Z,101557.35
2018-10-21T21:07:23.859Z,101556.09
2018-10-21T21:09:51.710Z,101559.09
2018-10-21T21:12:19.567Z,101560.13
2018-10-21T21:14:47.257Z,101554.08
2018-10-21T21:17:15.027Z,101559.69
2018-10-21T21:19:42.704Z,101559.41
2018-10-21T21:22:10.524Z,101556.28
2018-10-21T21:24:38.165Z,101547.52
2018-10-21T21:27:05.958Z,101559.48
2018-10-21T21:29:34.876Z,101558.33
2018-10-21T21:32:02.609Z,101564.41
2018-10-21T21:34:30.310Z,101560.98
2018-10-21T21:36:58.165Z,101566.30
2018-10-21T21:39:26.085Z,101566.94
2018-10-21T21:41:53.918Z,101577.70
2018-10-21T21:44:22.729Z,101573.81
2018-10-21T21:46:51.078Z,101579.30
2018-10-21T21:49:18.859Z,101574.45
2018-10-21T21:51:46.741Z,101581.27
2018-10-21T21:54:14.645Z,101583.03
2018-10-21T21:56:43.900Z,101576.95
2018-10-21T21:59:11.599Z,101570.94
2018-10-21T22:01:39.329Z,101574.91
2018-10-21T22:04:07.738Z,101570.62
2018-10-21T22:06:35.793Z,101573.86
2018-10-21T22:09:06.965Z,101570.50
2018-10-21T22:11:34.702Z,101572.42
2018-10-21T22:14:02.480Z,101566.17
2018-10-21T22:16:30.249Z,101572.98
2018-10-21T22:18:58.411Z,101570.73
2018-10-21T22:21:26.196Z,101579.91
2018-10-21T22:23:54.123Z,101574.34
2018-10-21T22:26:22.164Z,101569.94
2018-10-21T22:28:49.842Z,101566.30
2018-10-21T22:31:17.469Z,101562.93
2018-10-21T22:33:45.185Z,101566.64
2018-10-21T22:36:12.991Z,101569.67
2018-10-21T22:38:40.610Z,101568.80
2018-10-21T22:41:09.691Z,101570.36
2018-10-21T22:43:37.449Z,101561.66
2018-10-21T22:46:05.455Z,101561.37
2018-10-21T22:48:33.129Z,101560.75
2018-10-21T22:51:00.864Z,101561.31
2018-10-21T22:53:28.526Z,101560.44
2018-10-21T22:55:56.169Z,101549.06
2018-10-21T22:58:23.821Z,101554.61
2018-10-21T23:00:51.473Z,101554.93
2018-10-21T23:03:19.238Z,101558.75
2018-10-21T23:05:46.925Z,101550.23
2018-10-21T23:08:14.565Z,101550.95
2018-10-21T23:10:42.217Z,101554.48
2018-10-21T23:13:09.957Z,101555.84
2018-10-21T23:15:37.717Z,101555.22
2018-10-21T23:18:05.496Z,101554.92
2018-10-21T23:20:33.147Z,101556.61
2018-10-21T23:23:00.809Z,101555.02
2018-10-21T23:25:28.508Z,101563.26
2018-10-21T23:27:56.247Z,101561.52
2018-10-21T23:30:23.914Z,101566.84
2018-10-21T23:32:51.663Z,101571.60
2018-10-21T23:35:19.345Z,101574.59
2018-10-21T23:37:47.019Z,101574.86
2018-10-21T23:40:14.731Z,101575.79
2018-10-21T23:42:42.400Z,101582.92
2018-10-21T23:45:10.154Z,101577.22
2018-10-21T23:47:37.797Z,101568.17
2018-10-21T23:50:06.006Z,101570.05
2018-10-21T23:52:33.749Z,101573.27
2018-10-21T23:55:01.465Z,101565.94
2018-10-21T23:57:29.204Z,101573.08
2018-10-21T23:59:56.923Z,101571.44
